• Join FlightAware (Why Join?)
  • Login
  • US Flag 
Gobble Gobble! 
08:43AM EST


 

Airport Tracker/Info


-or-


 

Live Flight TrackerFlight Track Log ✈ ASQ4233 ✈ 03-May-2013 ✈ KDAL - KIAH

Flight Track Log - Related Links

Times and Time Zones

All times are in EDT time to prevent confusion due to time zone crossing. See the ASQ4233 flight status page for this flight to view local times or setup timezone preferences in your user account.

Time Position Orientation Groundspeed Altitude Reporting Facility
EDT Latitude Longitude Course Direction KTS MPH feet Rate Location/Type
02:16PM 32.8667 -96.8500 301° West 145 167 1,300  Level Dallas / Fort Worth TRACON
02:16PM 32.8833 -96.8833 301° West 159 183 2,600 2,220 Climbing Dallas / Fort Worth TRACON
02:17PM 32.9167 -96.8500 40° Northeast 218 251 4,700 2,220 Climbing Dallas / Fort Worth TRACON
02:18PM 32.9000 -96.7833 107° East 267 307 7,100 2,100 Climbing Dallas / Fort Worth TRACON
02:19PM 32.8167 -96.7667 170° South 306 352 9,000 1,620 Climbing Dallas / Fort Worth TRACON
02:21PM 32.6064 -96.7869 185° South 324 373 12,400 1,380 Climbing Fort Worth Center
02:22PM 32.5103 -96.7975 185° South 375 432 13,700 1,680 Climbing Fort Worth Center
02:23PM 32.3936 -96.8081 184° South 392 451 15,800 1,860 Climbing Fort Worth Center
02:24PM 32.2975 -96.8136 183° South 387 445 17,500 1,260 Climbing Fort Worth Center
02:25PM 32.1783 -96.7753 165° South 388 447 18,400 960 Climbing Fort Worth Center
02:26PM 32.0694 -96.7342 162° South 408 470 19,500 960 Climbing Fort Worth Center
02:27PM 31.9650 -96.6958 163° South 417 480 20,400 720 Climbing Fort Worth Center
02:28PM 31.8456 -96.6503 162° South 439 505 21,000 240 Climbing Fort Worth Center
02:29PM 31.7264 -96.6000 160° South 455 524 21,000  Level Fort Worth Center
02:31PM 31.5025 -96.5081 161° South 462 532 21,000  Level Houston Center
02:32PM 31.3794 -96.4614 162° South 459 528 21,000  Level Houston Center
02:33PM 31.2569 -96.4147 162° South 456 525 21,000  Level Houston Center
02:34PM 31.1117 -96.3614 163° South 463 533 21,000  Level Houston Center
02:35PM 30.9919 -96.3525 176° South 422 486 21,000  Level Houston Center
02:36PM 30.8781 -96.3469 178° South 405 466 21,000  Level Houston Center
02:37PM 30.7642 -96.3428 178° South 404 465 21,000  Level Houston Center
02:38PM 30.6553 -96.3014 162° South 428 493 21,000  Level Houston Center
02:39PM 30.5897 -96.1800 122° Southeast 444 511 21,000 -1,260 Level Houston Center
02:40PM 30.5478 -96.0847 117° Southeast 431 496 18,900 -2,700 Descending Houston Center
02:41PM 30.5358 -96.0536 114° Southeast 437 503 18,200 -1,260 Descending Houston Center
02:41PM 30.5108 -95.9944 116° Southeast 394 453 17,900 -1,860 Descending Houston Center
02:42PM 30.4850 -95.9375 118° Southeast 391 450 16,300 -3,000 Descending Houston Center
02:42PM 30.4589 -95.8792 117° Southeast 373 429 14,900 -2,280 Descending Houston Center
02:43PM 30.4317 -95.8394 128° Southeast 361 415 14,000 -2,220 Descending Houston Center
02:43PM 30.3911 -95.8000 140° Southeast 334 384 12,700 -2,460 Descending Houston Center
02:44PM 30.3622 -95.7669 135° Southeast 339 390 11,500 -2,820 Descending Houston Center
02:44PM 30.3214 -95.7258 139° Southeast 328 377 9,800 -3,000 Descending Houston Center
02:45PM 30.2814 -95.6842 138° Southeast 328 377 8,400 -2,280 Descending Houston Center
02:45PM 30.2542 -95.6539 136° Southeast 316 364 7,500 -1,980 Descending Houston Center
02:46PM 30.2175 -95.6169 139° Southeast 317 365 6,400 -1,500 Descending Houston Center
02:46PM 30.1897 -95.5892 139° Southeast 299 344 6,000 -540 Descending Houston Center
02:47PM 30.1556 -95.5517 136° Southeast 305 351 5,900  Descending Houston Center
02:47PM 30.1272 -95.5239 140° Southeast 304 350 6,000  Climbing Houston Center
02:48PM 30.1075 -95.4786 117° Southeast 294 338 5,900  Descending Houston Center
02:48PM 30.1067 -95.4372 91° East 266 306 6,000 60 Climbing Houston Center
02:49PM 30.1056 -95.3911 92° East 277 319 6,000  Level Houston Center
02:49PM 30.1053 -95.3528 90° East 228 262 6,000  Level Houston Center
02:50PM 30.1053 -95.3161 90° East 238 274 6,000  Level Houston Center
02:50PM 30.1047 -95.2781 91° East 238 274 6,000 -240 Level Houston Center
02:51PM 30.1058 -95.2272 89° East 230 265 5,800 -600 Descending Houston Center
02:51PM 30.1067 -95.2078 87° East 198 228 5,400 -1,500 Descending Houston Center
02:52PM 30.1061 -95.1642 91° East 202 232 4,300 -1,620 Descending Houston Center
02:52PM 30.1069 -95.1425 87° East 196 226 3,800 -1,500 Descending Houston Center
02:53PM 30.1061 -95.1011 91° East 197 227 2,800 -1,500 Descending Houston Center
02:53PM 30.1011 -95.0803 105° East 200 230 2,300 -780 Descending Houston Center
02:54PM 30.0686 -95.0689 163° South 209 241 2,000 -300 Descending Houston Center
02:54PM 30.0478 -95.0700 183° South 202 232 2,000  Level Houston Center
02:55PM 30.0250 -95.0908 218° Southwest 191 220 2,000  Level Houston Center
02:55PM 30.0136 -95.1106 236° Southwest 177 204 2,000  Level Houston Center
02:56PM 30.0058 -95.1406 253° West 179 206 2,000  Level Houston Center
02:57PM 30.0078 -95.2056 272° West 172 198 2,000 -240 Level Houston Center
02:58PM 30.0081 -95.2536 270° West 163 188 1,500 -660 Descending Houston Center
02:59PM 30.0075 -95.2978 269° West 150 173 700 -540 Descending Houston Center
03:00PM 30.0083 -95.3386 271° West 146 168 400 -300 Descending Houston Center